Time;durP1;ratioP1;P1;durP2;ratioP2;P2;SDS_P1;SDS_P2;PMS_P1;PMS_P2;Temp;Humidity;BMP_temperature;BMP_pressure;BME280_temperature;BME280_humidity;BME280_pressure;Samples;Min_cycle;Max_cycle;Signal;HPM_P1;HPM_P2
2023/12/03 00:02:16;;;;;;;;;;;;;;;3.90;52.49;100876.28;4981909;28;6820;-75
2023/12/03 00:04:42;;;;;;;;;;;;;;;3.94;53.15;100883.38;4980229;28;7264;-75
2023/12/03 00:07:08;;;;;;;;;;;;;;;3.97;53.05;100877.66;4971548;28;7003;-75
2023/12/03 00:09:36;;;;;;;;;;;;;;;3.99;53.29;100877.03;4982301;28;6932;-84
2023/12/03 00:12:05;;;;;;;;;;;;;;;4.02;53.24;100882.34;4967482;28;7157;-85
2023/12/03 00:14:31;;;;;;;;;;;;;;;4.06;52.84;100870.81;4968807;28;8543;-82
2023/12/03 00:16:56;;;;;;;;;;;;;;;4.07;52.36;100864.09;4973325;28;7164;-79
2023/12/03 00:19:23;;;;;;;;;;;;;;;4.05;52.92;100870.69;4984954;28;6792;-85
2023/12/03 00:21:49;;;;;;;;;;;;;;;3.98;52.35;100864.22;4974547;28;6996;-73
2023/12/03 00:24:15;;;;;;;;;;;;;;;3.90;52.21;100871.22;4960103;28;6969;-78
2023/12/03 00:26:40;;;;;;;;;;;;;;;3.81;52.98;100870.44;4985616;28;6824;-83
2023/12/03 00:29:05;;;;;;;;;;;;;;;3.72;53.30;100868.06;4966046;28;6977;-77
2023/12/03 00:31:32;;;;;;;;;;;;;;;3.65;53.30;100871.69;4974944;28;6878;-83
2023/12/03 00:33:58;;;;;;;;;;;;;;;3.58;53.15;100869.44;4983908;28;6977;-83
2023/12/03 00:36:23;;;;;;;;;;;;;;;3.53;52.91;100863.97;4967292;28;7206;-82
2023/12/03 00:38:49;;;;;;;;;;;;;;;3.53;53.51;100868.16;4972231;28;6995;-84
2023/12/03 00:41:14;;;;;;;;;;;;;;;3.56;53.31;100864.22;4988679;28;6807;-84
2023/12/03 00:43:40;;;;;;;;;;;;;;;3.57;53.50;100870.16;4984055;28;6968;-84
2023/12/03 00:46:06;;;;;;;;;;;;;;;3.56;53.56;100864.22;4978441;28;6791;-81
2023/12/03 00:48:31;;;;;;;;;;;;;;;3.53;53.17;100863.06;4979370;28;6795;-80
2023/12/03 00:50:56;;;;;;;;;;;;;;;3.50;53.04;100866.22;4969304;28;6966;-84
2023/12/03 00:53:22;;;;;;;;;;;;;;;3.46;53.32;100861.69;4969848;28;8447;-84
2023/12/03 00:55:47;;;;;;;;;;;;;;;3.44;53.45;100869.16;4969843;28;6975;-78
2023/12/03 00:58:13;;;;;;;;;;;;;;;3.41;54.11;100871.44;4978430;28;7041;-84
2023/12/03 01:00:38;;;;;;;;;;;;;;;3.38;54.19;100868.66;4986257;28;6796;-83
2023/12/03 01:03:04;;;;;;;;;;;;;;;3.36;53.45;100870.13;4985954;28;7074;-81
2023/12/03 01:05:30;;;;;;;;;;;;;;;3.35;54.64;100878.50;4967837;28;7028;-81
2023/12/03 01:07:55;;;;;;;;;;;;;;;3.33;54.76;100882.56;4974596;28;6796;-83
2023/12/03 01:10:21;;;;;;;;;;;;;;;3.35;54.51;100885.25;4977222;28;6788;-83
2023/12/03 01:12:46;;;;;;;;;;;;;;;3.33;54.25;100885.09;4988035;28;6791;-75
2023/12/03 01:15:11;;;;;;;;;;;;;;;3.31;54.17;100886.63;4985091;28;7301;-84
2023/12/03 01:17:37;;;;;;;;;;;;;;;3.29;54.14;100883.94;4958940;28;7121;-82
2023/12/03 01:20:03;;;;;;;;;;;;;;;3.27;54.82;100894.69;4985099;28;7257;-72
2023/12/03 01:22:29;;;;;;;;;;;;;;;3.27;55.18;100897.22;4973322;28;7274;-72
2023/12/03 01:24:55;;;;;;;;;;;;;;;3.26;54.32;100892.94;4983291;28;7182;-71
2023/12/03 01:27:20;;;;;;;;;;;;;;;3.25;54.59;100897.13;4985925;28;6792;-73
2023/12/03 01:29:46;;;;;;;;;;;;;;;3.28;54.93;100906.59;4984719;28;8227;-72
2023/12/03 01:32:11;;;;;;;;;;;;;;;3.31;54.60;100901.81;4982831;28;6807;-73
2023/12/03 01:34:37;;;;;;;;;;;;;;;3.35;55.88;100902.97;4984838;28;7907;-73
2023/12/03 01:37:02;;;;;;;;;;;;;;;3.35;55.46;100905.50;4984316;28;7304;-73
2023/12/03 01:39:28;;;;;;;;;;;;;;;3.36;55.49;100909.81;4976474;28;6784;-72
2023/12/03 01:41:53;;;;;;;;;;;;;;;3.32;55.72;100909.53;5000322;28;6999;-71
2023/12/03 01:44:19;;;;;;;;;;;;;;;3.32;55.17;100908.66;4986458;28;6943;-73
2023/12/03 01:46:48;;;;;;;;;;;;;;;3.29;55.76;100905.88;4966515;28;6986;-71
2023/12/03 01:49:14;;;;;;;;;;;;;;;3.27;54.93;100912.44;5002603;28;7462;-72
2023/12/03 01:51:41;;;;;;;;;;;;;;;3.25;56.10;100902.19;4988417;28;6791;-73
2023/12/03 01:54:07;;;;;;;;;;;;;;;3.24;55.63;100909.66;4968057;28;7122;-71
2023/12/03 01:56:32;;;;;;;;;;;;;;;3.19;54.88;100905.09;4975519;28;7018;-73
2023/12/03 01:58:58;;;;;;;;;;;;;;;3.19;55.38;100911.78;4980259;28;7146;-72
2023/12/03 02:01:23;;;;;;;;;;;;;;;3.16;56.14;100909.88;4971339;28;6996;-73
2023/12/03 02:03:49;;;;;;;;;;;;;;;3.15;55.16;100913.16;4985852;28;8598;-72
2023/12/03 02:06:15;;;;;;;;;;;;;;;3.14;55.32;100908.84;4983859;28;6812;-73
2023/12/03 02:08:40;;;;;;;;;;;;;;;3.13;56.18;100914.69;4966663;28;6962;-71
2023/12/03 02:11:07;;;;;;;;;;;;;;;3.13;55.65;100918.84;4991306;28;6980;-72
2023/12/03 02:13:36;;;;;;;;;;;;;;;3.12;55.53;100917.06;4971620;28;7201;-73
2023/12/03 02:16:02;;;;;;;;;;;;;;;3.12;55.98;100917.06;4973452;28;7052;-72
2023/12/03 02:18:28;;;;;;;;;;;;;;;3.14;55.93;100923.16;4974147;28;6961;-72
2023/12/03 02:20:55;;;;;;;;;;;;;;;3.16;56.11;100920.00;4982307;28;6951;-73
2023/12/03 02:23:21;;;;;;;;;;;;;;;3.26;56.58;100930.94;4974705;28;6797;-72
2023/12/03 02:25:48;;;;;;;;;;;;;;;3.35;56.68;100926.66;4982334;28;6827;-72
2023/12/03 02:28:14;;;;;;;;;;;;;;;3.44;57.19;100932.50;4975318;28;7013;-72
2023/12/03 02:30:40;;;;;;;;;;;;;;;3.53;57.26;100922.28;4985680;28;6863;-83
2023/12/03 02:33:05;;;;;;;;;;;;;;;3.64;56.43;100923.16;4986635;28;6792;-79
2023/12/03 02:35:31;;;;;;;;;;;;;;;3.73;57.25;100928.13;4985290;28;6954;-77
2023/12/03 02:37:56;;;;;;;;;;;;;;;3.81;56.54;100942.31;4982348;28;7195;-78
2023/12/03 02:40:22;;;;;;;;;;;;;;;3.90;56.71;100937.16;4975496;28;7047;-81
2023/12/03 02:42:47;;;;;;;;;;;;;;;3.98;56.78;100941.22;4976728;28;6795;-77
2023/12/03 02:45:13;;;;;;;;;;;;;;;4.05;56.90;100932.47;4968474;28;6956;-85
2023/12/03 02:47:38;;;;;;;;;;;;;;;4.11;56.65;100938.06;4969443;28;7050;-82
2023/12/03 02:50:04;;;;;;;;;;;;;;;4.15;56.91;100942.59;4971864;28;7072;-84
2023/12/03 02:52:30;;;;;;;;;;;;;;;4.17;56.51;100940.22;4982693;28;6803;-80
2023/12/03 02:54:55;;;;;;;;;;;;;;;4.19;56.27;100941.22;4959336;28;7224;-86
2023/12/03 02:57:21;;;;;;;;;;;;;;;4.19;56.58;100945.38;4964009;28;6976;-79
2023/12/03 02:59:46;;;;;;;;;;;;;;;4.17;56.30;100947.81;4974596;28;7075;-83
2023/12/03 03:02:13;;;;;;;;;;;;;;;4.15;56.62;100942.59;4980775;28;6820;-76
2023/12/03 03:04:38;;;;;;;;;;;;;;;4.13;56.05;100935.63;4975191;28;7220;-80
2023/12/03 03:07:04;;;;;;;;;;;;;;;4.12;56.11;100936.38;4984518;28;7267;-84
2023/12/03 03:09:29;;;;;;;;;;;;;;;4.11;55.98;100934.63;4984738;28;7035;-83
2023/12/03 03:11:57;;;;;;;;;;;;;;;4.09;55.83;100936.16;4982204;28;6868;-83
2023/12/03 03:14:23;;;;;;;;;;;;;;;4.06;55.73;100938.44;4970281;28;7258;-85
2023/12/03 03:16:49;;;;;;;;;;;;;;;4.03;55.80;100939.06;4969052;28;7002;-84
2023/12/03 03:19:14;;;;;;;;;;;;;;;3.99;55.33;100937.91;4968676;28;9624;-76
2023/12/03 03:21:40;;;;;;;;;;;;;;;3.96;56.09;100942.75;4969233;28;7468;-84
2023/12/03 03:24:06;;;;;;;;;;;;;;;3.95;56.22;100940.06;4978588;28;6768;-84
2023/12/03 03:26:32;;;;;;;;;;;;;;;3.94;55.70;100944.25;4968011;28;7537;-82
2023/12/03 03:28:57;;;;;;;;;;;;;;;3.92;55.75;100938.16;4980417;28;6780;-81
2023/12/03 03:31:23;;;;;;;;;;;;;;;3.97;56.51;100943.63;4983220;28;6780;-83
2023/12/03 03:33:49;;;;;;;;;;;;;;;3.99;55.88;100948.06;4993868;28;6961;-84
2023/12/03 03:36:15;;;;;;;;;;;;;;;4.02;56.42;100945.78;4982189;28;7206;-84
2023/12/03 03:38:44;;;;;;;;;;;;;;;4.05;56.14;100946.78;4974697;28;7282;-84
2023/12/03 03:41:10;;;;;;;;;;;;;;;4.07;56.16;100943.63;4975574;28;6824;-74
2023/12/03 03:43:36;;;;;;;;;;;;;;;4.07;55.88;100953.75;4984184;28;6808;-71
2023/12/03 03:46:03;;;;;;;;;;;;;;;4.07;56.25;100950.34;4984569;28;6976;-71
2023/12/03 03:48:28;;;;;;;;;;;;;;;4.06;55.68;100946.03;4952481;28;6985;-75
2023/12/03 03:50:53;;;;;;;;;;;;;;;4.07;55.98;100946.16;4984013;28;6803;-72
2023/12/03 03:53:19;;;;;;;;;;;;;;;4.07;56.35;100945.28;4981985;28;7282;-72
2023/12/03 03:55:45;;;;;;;;;;;;;;;4.08;55.77;100952.13;4984590;28;6800;-72
2023/12/03 03:58:10;;;;;;;;;;;;;;;4.05;56.07;100957.81;4982269;28;7259;-74
2023/12/03 04:00:36;;;;;;;;;;;;;;;4.04;56.18;100956.06;4980220;28;6966;-72
2023/12/03 04:03:01;;;;;;;;;;;;;;;4.01;56.31;100950.75;4966519;28;7303;-71
2023/12/03 04:05:27;;;;;;;;;;;;;;;3.98;55.86;100955.53;4966641;28;7273;-71
2023/12/03 04:07:52;;;;;;;;;;;;;;;3.94;55.37;100951.84;4999145;28;6952;-72
2023/12/03 04:10:18;;;;;;;;;;;;;;;3.89;56.18;100951.47;4983651;28;6799;-72
2023/12/03 04:12:43;;;;;;;;;;;;;;;3.89;56.44;100956.53;4987857;28;7015;-72
2023/12/03 04:15:09;;;;;;;;;;;;;;;3.86;55.89;100950.31;4983661;28;7107;-71
2023/12/03 04:17:35;;;;;;;;;;;;;;;3.82;55.87;100950.84;4973409;28;7201;-73
2023/12/03 04:20:01;;;;;;;;;;;;;;;3.78;55.89;100948.81;4986168;28;7019;-72
2023/12/03 04:22:26;;;;;;;;;;;;;;;3.73;55.72;100949.28;4989931;28;6807;-73
2023/12/03 04:24:52;;;;;;;;;;;;;;;3.68;55.20;100950.56;4976459;28;6844;-72
2023/12/03 04:27:17;;;;;;;;;;;;;;;3.65;55.30;100949.41;4975303;28;6946;-71
2023/12/03 04:29:43;;;;;;;;;;;;;;;3.61;55.73;100951.66;4978614;28;6767;-71
2023/12/03 04:32:08;;;;;;;;;;;;;;;3.59;55.16;100954.84;4978974;28;6776;-74
2023/12/03 04:34:34;;;;;;;;;;;;;;;3.56;55.56;100954.56;4974696;28;6783;-71
2023/12/03 04:36:59;;;;;;;;;;;;;;;3.53;56.22;100949.25;4985308;28;6984;-74
2023/12/03 04:39:25;;;;;;;;;;;;;;;3.52;56.67;100953.41;4988314;28;6880;-72
2023/12/03 04:41:50;;;;;;;;;;;;;;;3.50;55.60;100954.06;4967758;28;6990;-74
2023/12/03 04:44:16;;;;;;;;;;;;;;;3.49;56.14;100958.25;5001564;28;7033;-72
2023/12/03 04:46:41;;;;;;;;;;;;;;;3.50;56.36;100965.09;4964216;28;6954;-74
2023/12/03 04:49:07;;;;;;;;;;;;;;;3.53;56.59;100969.53;4987666;28;6803;-72
2023/12/03 04:51:33;;;;;;;;;;;;;;;3.58;56.72;100970.84;4974064;28;7366;-74
2023/12/03 04:53:58;;;;;;;;;;;;;;;3.65;57.23;100970.56;4977120;28;6961;-74
2023/12/03 04:56:24;;;;;;;;;;;;;;;3.71;56.04;100968.56;4984359;28;7313;-75
2023/12/03 04:58:49;;;;;;;;;;;;;;;3.76;56.34;100963.88;4974900;28;6784;-75
2023/12/03 05:01:19;;;;;;;;;;;;;;;3.83;56.89;100966.19;4973101;28;6946;-74
2023/12/03 05:03:45;;;;;;;;;;;;;;;3.85;56.68;100969.72;4981357;28;7098;-74
2023/12/03 05:06:11;;;;;;;;;;;;;;;3.92;56.37;100962.66;4984500;28;6807;-75
2023/12/03 05:08:37;;;;;;;;;;;;;;;3.95;56.38;100962.91;4967715;28;7222;-74
2023/12/03 05:11:06;;;;;;;;;;;;;;;3.95;56.16;100966.31;4975088;28;6955;-75
2023/12/03 05:13:33;;;;;;;;;;;;;;;3.93;55.68;100960.22;4982199;28;6871;-75
2023/12/03 05:16:01;;;;;;;;;;;;;;;3.91;56.08;100959.22;4981441;28;7228;-76
2023/12/03 05:18:26;;;;;;;;;;;;;;;3.85;55.41;100958.69;4974898;28;7179;-74
2023/12/03 05:20:52;;;;;;;;;;;;;;;3.81;55.62;100952.47;4973530;28;7200;-74
2023/12/03 05:23:17;;;;;;;;;;;;;;;3.79;55.29;100963.25;4983819;28;6788;-75
2023/12/03 05:25:43;;;;;;;;;;;;;;;3.74;55.30;100957.81;4981943;28;7452;-75
2023/12/03 05:28:08;;;;;;;;;;;;;;;3.72;55.65;100956.78;4974031;28;7475;-75
2023/12/03 05:30:34;;;;;;;;;;;;;;;3.69;55.44;100952.34;4980782;28;6780;-75
2023/12/03 05:33:00;;;;;;;;;;;;;;;3.68;56.16;100955.63;4971794;28;7174;-74
2023/12/03 05:35:25;;;;;;;;;;;;;;;3.67;55.79;100963.09;4967040;28;6864;-75
2023/12/03 05:37:51;;;;;;;;;;;;;;;3.65;56.01;100955.34;4983042;28;7163;-75
2023/12/03 05:40:16;;;;;;;;;;;;;;;3.64;55.45;100966.25;4987771;28;6976;-75
2023/12/03 05:42:42;;;;;;;;;;;;;;;3.62;55.95;100965.25;4981509;28;6992;-73
2023/12/03 05:45:08;;;;;;;;;;;;;;;3.62;55.86;100972.84;4982631;28;6958;-74
2023/12/03 05:47:34;;;;;;;;;;;;;;;3.61;55.39;100971.09;4972491;28;8918;-75
2023/12/03 05:50:01;;;;;;;;;;;;;;;3.62;56.14;100965.25;4975120;28;8002;-74
2023/12/03 05:52:27;;;;;;;;;;;;;;;3.66;55.34;100972.34;4985777;28;6812;-74
2023/12/03 05:54:54;;;;;;;;;;;;;;;3.70;56.20;100984.53;4983969;28;6895;-75
2023/12/03 05:57:19;;;;;;;;;;;;;;;3.75;55.93;100985.81;4980615;28;6800;-75
2023/12/03 05:59:45;;;;;;;;;;;;;;;3.82;55.60;100987.25;4976442;28;6818;-74
2023/12/03 06:02:10;;;;;;;;;;;;;;;3.87;55.81;100992.69;4981085;28;6969;-74
2023/12/03 06:04:36;;;;;;;;;;;;;;;3.92;56.14;100990.56;4974161;28;6772;-73
2023/12/03 06:07:01;;;;;;;;;;;;;;;3.97;55.63;100989.28;4964332;28;6946;-73
2023/12/03 06:09:27;;;;;;;;;;;;;;;4.01;55.29;100996.41;4974540;28;6788;-73
2023/12/03 06:11:52;;;;;;;;;;;;;;;4.07;55.87;100991.81;4983214;28;6780;-73
2023/12/03 06:14:18;;;;;;;;;;;;;;;4.10;54.89;100996.28;4983702;28;6779;-73
2023/12/03 06:16:43;;;;;;;;;;;;;;;4.13;55.16;100988.91;4973082;28;7269;-73
2023/12/03 06:19:09;;;;;;;;;;;;;;;4.14;54.94;100994.13;4967758;28;7290;-74
2023/12/03 06:21:34;;;;;;;;;;;;;;;4.16;54.69;101001.88;4979737;28;6787;-73
2023/12/03 06:24:00;;;;;;;;;;;;;;;4.15;55.25;100995.88;4981002;28;6939;-73
2023/12/03 06:26:25;;;;;;;;;;;;;;;4.16;54.59;101002.72;4984279;28;6976;-73
2023/12/03 06:28:50;;;;;;;;;;;;;;;4.19;54.60;101013.91;4997211;28;7121;-73
2023/12/03 06:31:16;;;;;;;;;;;;;;;4.22;54.45;101020.13;4980324;28;6799;-73
2023/12/03 06:33:41;;;;;;;;;;;;;;;4.27;55.12;101021.41;4980045;28;6780;-73
2023/12/03 06:36:07;;;;;;;;;;;;;;;4.35;55.42;101021.16;4982453;28;7241;-73
2023/12/03 06:38:33;;;;;;;;;;;;;;;4.40;55.30;101022.41;4981464;28;6799;-73
2023/12/03 06:40:58;;;;;;;;;;;;;;;4.46;54.94;101017.84;4985489;28;6779;-73
2023/12/03 06:43:24;;;;;;;;;;;;;;;4.52;54.92;101020.00;4957123;28;6982;-73
2023/12/03 06:45:49;;;;;;;;;;;;;;;4.53;54.92;101025.19;4980048;28;6787;-73
2023/12/03 06:48:15;;;;;;;;;;;;;;;4.56;54.67;101025.47;4982240;28;7730;-73
2023/12/03 06:50:40;;;;;;;;;;;;;;;4.57;54.25;101029.78;4980524;28;6878;-73
2023/12/03 06:53:06;;;;;;;;;;;;;;;4.57;54.47;101023.78;4982190;28;6808;-72
2023/12/03 06:55:31;;;;;;;;;;;;;;;4.55;54.20;101011.00;4982911;28;6779;-72
2023/12/03 06:57:58;;;;;;;;;;;;;;;4.53;53.67;101016.69;4970135;28;6968;-73
2023/12/03 07:00:24;;;;;;;;;;;;;;;4.53;54.05;101016.69;4962900;28;8368;-73
2023/12/03 07:02:50;;;;;;;;;;;;;;;4.50;53.64;101012.25;4979392;28;6847;-72
2023/12/03 07:05:15;;;;;;;;;;;;;;;4.52;53.49;101012.38;4980523;28;6915;-73
2023/12/03 07:07:42;;;;;;;;;;;;;;;4.49;53.24;101013.03;4984676;28;7092;-73
2023/12/03 07:10:08;;;;;;;;;;;;;;;4.47;54.11;101019.63;4987673;28;6784;-73
2023/12/03 07:12:33;;;;;;;;;;;;;;;4.44;54.09;101020.25;4981845;28;6796;-73
2023/12/03 07:14:59;;;;;;;;;;;;;;;4.43;53.31;101020.13;4974267;28;6867;-72
2023/12/03 07:17:24;;;;;;;;;;;;;;;4.41;53.72;101016.56;4981371;28;6799;-73
2023/12/03 07:19:50;;;;;;;;;;;;;;;4.40;53.49;101017.34;4973727;28;6803;-73
2023/12/03 07:22:15;;;;;;;;;;;;;;;4.40;53.34;101022.41;4982188;28;6811;-73
2023/12/03 07:24:41;;;;;;;;;;;;;;;4.40;53.21;101022.41;4955431;28;8131;-73
2023/12/03 07:27:07;;;;;;;;;;;;;;;4.40;53.42;101019.88;4969065;28;6955;-73
2023/12/03 07:29:33;;;;;;;;;;;;;;;4.42;53.43;101020.88;4979763;28;7145;-73
2023/12/03 07:31:59;;;;;;;;;;;;;;;4.42;53.25;101026.88;4971649;28;6852;-72
2023/12/03 07:34:26;;;;;;;;;;;;;;;4.42;52.93;101028.50;4975468;28;6871;-73
2023/12/03 07:36:51;;;;;;;;;;;;;;;4.41;53.66;101031.81;4983187;28;6971;-73
2023/12/03 07:39:18;;;;;;;;;;;;;;;4.41;53.45;101036.88;4970042;28;6788;-72
2023/12/03 07:41:49;;;;;;;;;;;;;;;4.40;53.48;101032.56;4979823;28;6996;-73
2023/12/03 07:44:14;;;;;;;;;;;;;;;4.42;53.17;101036.13;4975060;28;6955;-73
2023/12/03 07:46:40;;;;;;;;;;;;;;;4.43;53.06;101042.97;4967547;28;6953;-73
2023/12/03 07:49:05;;;;;;;;;;;;;;;4.42;53.09;101046.28;4979419;28;6977;-73
2023/12/03 07:51:31;;;;;;;;;;;;;;;4.41;53.82;101042.84;4983220;28;6816;-73
2023/12/03 07:53:56;;;;;;;;;;;;;;;4.41;53.23;101047.03;4973000;28;6783;-73
2023/12/03 07:56:22;;;;;;;;;;;;;;;4.38;52.71;101039.16;4990796;28;6791;-73
2023/12/03 07:58:47;;;;;;;;;;;;;;;4.37;52.88;101045.00;4976068;28;7320;-73
2023/12/03 08:01:13;;;;;;;;;;;;;;;4.35;53.01;101059.22;4969937;28;7817;-73
2023/12/03 08:03:38;;;;;;;;;;;;;;;4.33;53.35;101048.94;4968615;28;7063;-73
2023/12/03 08:06:05;;;;;;;;;;;;;;;4.33;53.38;101050.56;4979564;28;9113;-73
2023/12/03 08:08:30;;;;;;;;;;;;;;;4.33;53.08;101046.41;4962282;28;7393;-73
2023/12/03 08:10:56;;;;;;;;;;;;;;;4.33;53.81;101046.41;4984282;28;6963;-73
2023/12/03 08:13:21;;;;;;;;;;;;;;;4.33;53.40;101042.97;4975898;28;6796;-73
2023/12/03 08:15:46;;;;;;;;;;;;;;;4.36;52.92;101051.72;4974702;28;7039;-74
2023/12/03 08:18:12;;;;;;;;;;;;;;;4.37;53.18;101045.00;4985095;28;6802;-73
2023/12/03 08:20:37;;;;;;;;;;;;;;;4.39;53.26;101038.41;4978628;28;6792;-73
2023/12/03 08:23:03;;;;;;;;;;;;;;;4.40;52.85;101038.53;4976061;28;6808;-73
2023/12/03 08:25:28;;;;;;;;;;;;;;;4.44;53.37;101038.03;4967885;28;7036;-73
2023/12/03 08:27:54;;;;;;;;;;;;;;;4.47;52.86;101045.00;4977634;28;6939;-73
2023/12/03 08:30:19;;;;;;;;;;;;;;;4.50;52.85;101044.38;4983473;28;6859;-73
2023/12/03 08:32:45;;;;;;;;;;;;;;;4.52;53.17;101048.81;4958719;28;6826;-73
2023/12/03 08:35:10;;;;;;;;;;;;;;;4.57;53.24;101047.56;4972788;28;6792;-73
2023/12/03 08:37:36;;;;;;;;;;;;;;;4.58;53.26;101045.88;4958529;28;7224;-73
2023/12/03 08:40:01;;;;;;;;;;;;;;;4.60;53.36;101041.84;4984445;28;7343;-73
2023/12/03 08:42:27;;;;;;;;;;;;;;;4.62;52.92;101041.94;4964601;28;7280;-73
2023/12/03 08:44:52;;;;;;;;;;;;;;;4.64;52.65;101043.84;4984113;28;6812;-73
2023/12/03 08:47:18;;;;;;;;;;;;;;;4.67;53.03;101050.84;4968041;28;7991;-73
2023/12/03 08:49:43;;;;;;;;;;;;;;;4.70;52.80;101048.56;4958724;28;7275;-72
2023/12/03 08:52:09;;;;;;;;;;;;;;;4.71;53.23;101047.78;4982533;28;6812;-73
2023/12/03 08:54:35;;;;;;;;;;;;;;;4.74;52.50;101050.59;4985284;28;6860;-73
2023/12/03 08:57:01;;;;;;;;;;;;;;;4.74;52.56;101045.53;4985870;28;6799;-73
2023/12/03 08:59:26;;;;;;;;;;;;;;;4.77;52.51;101049.94;4973095;28;6792;-73
2023/12/03 09:01:52;;;;;;;;;;;;;;;4.79;53.12;101041.69;4991613;28;7464;-73
2023/12/03 09:04:18;;;;;;;;;;;;;;;4.82;52.89;101047.00;4989576;28;6775;-74
2023/12/03 09:06:44;;;;;;;;;;;;;;;4.83;52.88;101051.34;4984320;28;6815;-73
2023/12/03 09:09:10;;;;;;;;;;;;;;;4.85;52.74;101049.81;4983095;28;7069;-73
2023/12/03 09:11:36;;;;;;;;;;;;;;;4.90;52.32;101062.00;4985364;28;6783;-73
2023/12/03 09:14:02;;;;;;;;;;;;;;;4.93;52.38;101059.72;4976714;28;6776;-73
2023/12/03 09:16:28;;;;;;;;;;;;;;;4.99;52.63;101060.19;4982681;28;6800;-74
2023/12/03 09:18:53;;;;;;;;;;;;;;;5.08;52.87;101060.06;4978568;28;6874;-73
2023/12/03 09:21:19;;;;;;;;;;;;;;;5.19;52.61;101060.91;4983242;28;6800;-73
2023/12/03 09:23:44;;;;;;;;;;;;;;;5.32;52.58;101057.72;4974566;28;7806;-73
2023/12/03 09:26:10;;;;;;;;;;;;;;;5.44;52.77;101056.13;4965398;28;7034;-73
2023/12/03 09:28:38;;;;;;;;;;;;;;;5.57;52.42;101063.06;4981284;28;6857;-73
2023/12/03 09:31:04;;;;;;;;;;;;;;;5.67;52.33;101063.03;4982080;28;6807;-84
2023/12/03 09:33:29;;;;;;;;;;;;;;;5.79;51.85;101063.09;4993954;28;6984;-82
2023/12/03 09:35:56;;;;;;;;;;;;;;;5.90;51.95;101063.94;4961108;28;8594;-87
2023/12/03 09:38:22;;;;;;;;;;;;;;;6.03;51.94;101065.78;4985040;28;7247;-83
2023/12/03 09:40:48;;;;;;;;;;;;;;;6.15;51.60;101064.97;4987433;28;6959;-83
2023/12/03 09:43:18;;;;;;;;;;;;;;;6.29;51.26;101071.13;4983102;28;7220;-81
2023/12/03 09:45:45;;;;;;;;;;;;;;;6.38;50.98;101067.59;4979155;28;6986;-86
2023/12/03 09:48:13;;;;;;;;;;;;;;;6.47;51.31;101062.34;4986608;28;7037;-88
2023/12/03 09:50:42;;;;;;;;;;;;;;;6.57;50.98;101065.53;4984988;28;7197;-87
2023/12/03 09:53:11;;;;;;;;;;;;;;;6.67;50.95;101065.50;4964426;28;6959;-78
2023/12/03 09:55:40;;;;;;;;;;;;;;;6.76;50.10;101067.81;4987577;28;6832;-85
2023/12/03 09:58:09;;;;;;;;;;;;;;;6.89;50.60;101077.25;4984957;28;6987;-83
2023/12/03 10:00:37;;;;;;;;;;;;;;;7.02;50.44;101076.50;4973807;28;7145;-88
2023/12/03 10:03:04;;;;;;;;;;;;;;;7.17;50.27;101074.19;4989916;28;6800;-87
2023/12/03 10:05:30;;;;;;;;;;;;;;;7.31;49.78;101070.09;4975481;28;7082;-84
2023/12/03 10:07:57;;;;;;;;;;;;;;;7.39;49.27;101061.31;4986352;28;6808;-88
2023/12/03 10:10:29;;;;;;;;;;;;;;;7.52;49.57;101065.59;4986396;28;6864;-85
2023/12/03 10:12:56;;;;;;;;;;;;;;;7.64;49.00;101063.03;4986320;28;7162;-79
2023/12/03 10:15:22;;;;;;;;;;;;;;;7.76;48.58;101061.34;4985156;28;6834;-81
2023/12/03 10:17:49;;;;;;;;;;;;;;;7.86;48.93;101060.34;4969626;28;7459;-86
2023/12/03 10:20:26;;;;;;;;;;;;;;;7.97;48.13;101057.63;4970225;28;7424;-87
2023/12/03 10:22:54;;;;;;;;;;;;;;;8.03;48.38;101053.84;4969944;28;7002;-80
2023/12/03 10:25:26;;;;;;;;;;;;;;;8.10;47.88;101052.59;4983621;28;6974;-79
2023/12/03 10:27:56;;;;;;;;;;;;;;;8.10;47.21;101044.91;4976998;28;6995;-84
2023/12/03 10:30:22;;;;;;;;;;;;;;;8.11;47.29;101049.28;4974495;28;6816;-86
2023/12/03 10:32:47;;;;;;;;;;;;;;;8.09;46.90;101048.25;4966778;28;7135;-86
2023/12/03 10:35:13;;;;;;;;;;;;;;;8.03;47.21;101033.41;4986984;28;6780;-84
2023/12/03 10:37:38;;;;;;;;;;;;;;;8.02;47.23;101035.88;4999314;28;8855;-85
2023/12/03 10:40:05;;;;;;;;;;;;;;;8.02;46.29;101035.88;4973203;28;7045;-80
2023/12/03 10:42:35;;;;;;;;;;;;;;;8.03;46.58;101027.44;4988816;28;6846;-85
2023/12/03 10:45:12;;;;;;;;;;;;;;;8.04;46.93;101026.66;4990771;28;6980;-84
2023/12/03 10:47:39;;;;;;;;;;;;;;;8.05;46.48;101025.88;4987975;28;6903;-88
2023/12/03 10:50:06;;;;;;;;;;;;;;;8.01;45.75;101029.88;4980338;28;8437;-82
2023/12/03 10:52:33;;;;;;;;;;;;;;;7.95;46.09;101026.88;4988013;28;6984;-86
2023/12/03 10:54:59;;;;;;;;;;;;;;;7.87;46.53;101023.81;4988146;28;7225;-82
2023/12/03 10:57:29;;;;;;;;;;;;;;;7.77;46.20;101021.41;4985952;28;6795;-83
2023/12/03 11:00:09;;;;;;;;;;;;;;;7.73;45.90;101024.56;4986674;28;7146;-86
2023/12/03 11:02:59;;;;;;;;;;;;;;;7.80;46.75;101021.63;4980838;28;6874;-80
2023/12/03 11:05:32;;;;;;;;;;;;;;;7.92;46.66;101022.47;4969034;28;6935;-84
2023/12/03 11:08:01;;;;;;;;;;;;;;;8.07;46.27;101024.28;4968711;28;7767;-84
2023/12/03 11:10:27;;;;;;;;;;;;;;;8.19;46.81;101014.91;4978560;28;6970;-88
2023/12/03 11:12:56;;;;;;;;;;;;;;;8.34;45.85;101016.72;4987332;28;7360;-80
2023/12/03 11:15:22;;;;;;;;;;;;;;;8.45;45.97;101013.22;5004281;28;6852;-87
2023/12/03 11:17:50;;;;;;;;;;;;;;;8.58;45.29;101008.94;4986847;28;6879;-86
2023/12/03 11:20:21;;;;;;;;;;;;;;;8.68;46.10;100995.97;4994345;28;6800;-87
2023/12/03 11:23:02;;;;;;;;;;;;;;;8.81;45.30;100996.81;4986822;28;6999;-76
2023/12/03 11:25:33;;;;;;;;;;;;;;;8.95;45.10;100995.13;4996920;28;6819;-85
2023/12/03 11:27:58;;;;;;;;;;;;;;;9.15;44.88;100993.81;4968580;28;7009;-85
2023/12/03 11:30:38;;;;;;;;;;;;;;;9.33;44.83;100993.22;4995370;28;6963;-79
2023/12/03 11:33:12;;;;;;;;;;;;;;;9.49;44.58;100990.84;4998901;28;6961;-85
2023/12/03 11:35:44;;;;;;;;;;;;;;;9.72;44.49;100978.56;4998151;28;7027;-86
2023/12/03 11:38:20;;;;;;;;;;;;;;;10.03;43.41;100984.63;4998109;28;7018;-80
2023/12/03 11:40:45;;;;;;;;;;;;;;;10.35;43.49;100977.97;4986955;28;6941;-89
2023/12/03 11:43:28;;;;;;;;;;;;;;;10.69;42.51;100965.44;4968232;28;7258;-82
2023/12/03 11:45:54;;;;;;;;;;;;;;;10.98;41.97;100958.47;5012755;28;6975;-81
2023/12/03 11:48:21;;;;;;;;;;;;;;;11.28;41.49;100954.06;4997344;28;8512;-84
2023/12/03 11:50:48;;;;;;;;;;;;;;;11.58;40.94;100948.78;4985764;28;7185;-86
2023/12/03 11:53:15;;;;;;;;;;;;;;;11.89;40.30;100947.84;4994747;28;7218;-73
2023/12/03 11:55:49;;;;;;;;;;;;;;;12.12;40.15;100940.44;4983369;28;6860;-74
2023/12/03 11:58:15;;;;;;;;;;;;;;;12.12;39.71;100935.31;4979397;28;6816;-74
2023/12/03 12:00:41;;;;;;;;;;;;;;;11.67;39.36;100927.06;4971546;28;6808;-73
2023/12/03 12:03:07;;;;;;;;;;;;;;;10.98;39.64;100930.25;4993376;28;7101;-74
2023/12/03 12:05:41;;;;;;;;;;;;;;;10.28;40.22;100939.19;4973365;28;7198;-75
2023/12/03 12:08:08;;;;;;;;;;;;;;;9.71;40.70;100933.28;4982912;28;6812;-74
2023/12/03 12:10:34;;;;;;;;;;;;;;;9.26;41.91;100936.56;4980994;28;6832;-74
2023/12/03 12:13:04;;;;;;;;;;;;;;;8.91;42.22;100942.03;4981926;28;6807;-74
2023/12/03 12:15:30;;;;;;;;;;;;;;;8.64;42.45;100942.91;4980970;28;6876;-74
2023/12/03 12:17:56;;;;;;;;;;;;;;;8.42;42.46;100941.50;4979982;28;7053;-75
2023/12/03 12:20:26;;;;;;;;;;;;;;;8.27;42.56;100935.38;4982034;28;6962;-74
2023/12/03 12:22:52;;;;;;;;;;;;;;;8.12;43.49;100928.50;4994786;28;6892;-74
2023/12/03 12:25:19;;;;;;;;;;;;;;;8.00;43.08;100927.66;4970197;28;7007;-74
2023/12/03 12:27:45;;;;;;;;;;;;;;;7.89;42.98;100921.84;4954042;28;7338;-75
2023/12/03 12:30:16;;;;;;;;;;;;;;;7.80;42.96;100923.78;4969925;28;7166;-74
2023/12/03 12:32:42;;;;;;;;;;;;;;;7.73;43.73;100923.34;4979397;28;6808;-75
2023/12/03 12:35:10;;;;;;;;;;;;;;;7.68;44.40;100919.63;4993205;28;7953;-74
2023/12/03 12:37:36;;;;;;;;;;;;;;;7.66;43.74;100917.72;4984107;28;7702;-74
2023/12/03 12:40:13;;;;;;;;;;;;;;;7.65;44.16;100904.06;4976356;28;7410;-75
2023/12/03 12:42:42;;;;;;;;;;;;;;;7.66;43.37;100910.94;4984822;28;7284;-75
2023/12/03 12:45:26;;;;;;;;;;;;;;;7.70;43.42;100906.94;4976564;28;6996;-73
2023/12/03 12:47:52;;;;;;;;;;;;;;;7.72;44.82;100908.81;4984322;28;7121;-73
2023/12/03 12:50:18;;;;;;;;;;;;;;;7.75;44.72;100903.03;4971623;28;7282;-73
2023/12/03 12:52:54;;;;;;;;;;;;;;;7.78;44.09;100898.13;4978179;28;6788;-73
2023/12/03 12:55:31;;;;;;;;;;;;;;;7.82;44.14;100900.09;5000493;28;6962;-74